sensor_id;sensor_type;location;lat;lon;timestamp;P1;durP1;ratioP1;P2;durP2;ratioP2
30303;SDS011;17112;48.636;10.152;2022-12-16T00:00:24;33.60;;;18.15;;
30303;SDS011;17112;48.636;10.152;2022-12-16T00:02:50;29.80;;;17.40;;
30303;SDS011;17112;48.636;10.152;2022-12-16T00:05:16;32.83;;;17.67;;
30303;SDS011;17112;48.636;10.152;2022-12-16T00:07:44;35.00;;;17.67;;
30303;SDS011;17112;48.636;10.152;2022-12-16T00:10:10;30.60;;;17.63;;
30303;SDS011;17112;48.636;10.152;2022-12-16T00:12:36;34.03;;;18.20;;
30303;SDS011;17112;48.636;10.152;2022-12-16T00:15:01;32.85;;;17.70;;
30303;SDS011;17112;48.636;10.152;2022-12-16T00:17:27;30.58;;;16.02;;
30303;SDS011;17112;48.636;10.152;2022-12-16T00:19:53;32.53;;;17.20;;
30303;SDS011;17112;48.636;10.152;2022-12-16T00:22:18;30.92;;;17.10;;
30303;SDS011;17112;48.636;10.152;2022-12-16T00:24:45;38.75;;;17.38;;
30303;SDS011;17112;48.636;10.152;2022-12-16T00:27:11;29.98;;;16.67;;
30303;SDS011;17112;48.636;10.152;2022-12-16T00:29:36;34.47;;;18.55;;
30303;SDS011;17112;48.636;10.152;2022-12-16T00:32:02;31.10;;;16.75;;
30303;SDS011;17112;48.636;10.152;2022-12-16T00:34:28;32.38;;;16.75;;
30303;SDS011;17112;48.636;10.152;2022-12-16T00:36:53;27.30;;;15.73;;
30303;SDS011;17112;48.636;10.152;2022-12-16T00:39:19;29.08;;;15.82;;
30303;SDS011;17112;48.636;10.152;2022-12-16T00:41:45;30.85;;;17.65;;
30303;SDS011;17112;48.636;10.152;2022-12-16T00:44:11;31.27;;;18.38;;
30303;SDS011;17112;48.636;10.152;2022-12-16T00:46:37;28.77;;;15.27;;
30303;SDS011;17112;48.636;10.152;2022-12-16T00:49:04;24.77;;;14.10;;
30303;SDS011;17112;48.636;10.152;2022-12-16T00:51:30;29.85;;;15.07;;
30303;SDS011;17112;48.636;10.152;2022-12-16T00:53:55;26.83;;;14.48;;
30303;SDS011;17112;48.636;10.152;2022-12-16T00:56:21;29.48;;;14.98;;
30303;SDS011;17112;48.636;10.152;2022-12-16T00:58:47;28.70;;;15.52;;
30303;SDS011;17112;48.636;10.152;2022-12-16T01:01:12;32.28;;;15.52;;
30303;SDS011;17112;48.636;10.152;2022-12-16T01:03:38;27.08;;;14.75;;
30303;SDS011;17112;48.636;10.152;2022-12-16T01:06:08;25.70;;;14.55;;
30303;SDS011;17112;48.636;10.152;2022-12-16T01:08:34;29.90;;;14.77;;
30303;SDS011;17112;48.636;10.152;2022-12-16T01:10:59;26.00;;;14.43;;
30303;SDS011;17112;48.636;10.152;2022-12-16T01:13:25;27.10;;;14.45;;
30303;SDS011;17112;48.636;10.152;2022-12-16T01:15:51;25.90;;;14.60;;
30303;SDS011;17112;48.636;10.152;2022-12-16T01:18:16;28.35;;;14.52;;
30303;SDS011;17112;48.636;10.152;2022-12-16T01:20:42;27.50;;;14.85;;
30303;SDS011;17112;48.636;10.152;2022-12-16T01:23:08;25.95;;;14.55;;
30303;SDS011;17112;48.636;10.152;2022-12-16T01:25:34;24.48;;;13.55;;
30303;SDS011;17112;48.636;10.152;2022-12-16T01:27:59;27.02;;;14.35;;
30303;SDS011;17112;48.636;10.152;2022-12-16T01:30:25;23.92;;;14.50;;
30303;SDS011;17112;48.636;10.152;2022-12-16T01:32:51;28.13;;;14.65;;
30303;SDS011;17112;48.636;10.152;2022-12-16T01:35:16;29.85;;;13.88;;
30303;SDS011;17112;48.636;10.152;2022-12-16T01:37:42;27.70;;;14.65;;
30303;SDS011;17112;48.636;10.152;2022-12-16T01:40:13;27.17;;;15.02;;
30303;SDS011;17112;48.636;10.152;2022-12-16T01:42:43;32.03;;;15.50;;
30303;SDS011;17112;48.636;10.152;2022-12-16T01:47:54;25.85;;;14.10;;
30303;SDS011;17112;48.636;10.152;2022-12-16T01:50:23;26.55;;;14.82;;
30303;SDS011;17112;48.636;10.152;2022-12-16T01:52:51;26.48;;;13.95;;
30303;SDS011;17112;48.636;10.152;2022-12-16T01:55:23;26.45;;;14.57;;
30303;SDS011;17112;48.636;10.152;2022-12-16T01:57:59;30.92;;;14.38;;
30303;SDS011;17112;48.636;10.152;2022-12-16T02:00:30;26.65;;;13.02;;
30303;SDS011;17112;48.636;10.152;2022-12-16T02:02:56;26.23;;;13.80;;
30303;SDS011;17112;48.636;10.152;2022-12-16T02:05:22;29.33;;;16.05;;
30303;SDS011;17112;48.636;10.152;2022-12-16T02:10:50;28.02;;;15.18;;
30303;SDS011;17112;48.636;10.152;2022-12-16T02:13:30;30.13;;;14.20;;
30303;SDS011;17112;48.636;10.152;2022-12-16T02:35:38;35.80;;;15.73;;
30303;SDS011;17112;48.636;10.152;2022-12-16T02:38:26;31.25;;;14.77;;
30303;SDS011;17112;48.636;10.152;2022-12-16T02:46:04;37.15;;;13.93;;
30303;SDS011;17112;48.636;10.152;2022-12-16T02:48:31;34.67;;;16.80;;
30303;SDS011;17112;48.636;10.152;2022-12-16T02:50:56;31.67;;;15.20;;
30303;SDS011;17112;48.636;10.152;2022-12-16T02:53:22;30.85;;;16.60;;
30303;SDS011;17112;48.636;10.152;2022-12-16T02:58:57;29.27;;;15.57;;
30303;SDS011;17112;48.636;10.152;2022-12-16T03:03:59;32.45;;;15.80;;
30303;SDS011;17112;48.636;10.152;2022-12-16T03:06:29;28.40;;;15.50;;
30303;SDS011;17112;48.636;10.152;2022-12-16T03:08:59;33.10;;;15.00;;
30303;SDS011;17112;48.636;10.152;2022-12-16T03:11:29;31.08;;;15.75;;
30303;SDS011;17112;48.636;10.152;2022-12-16T03:13:56;32.72;;;14.73;;
30303;SDS011;17112;48.636;10.152;2022-12-16T03:16:29;27.63;;;15.18;;
30303;SDS011;17112;48.636;10.152;2022-12-16T03:19:01;33.78;;;16.83;;
30303;SDS011;17112;48.636;10.152;2022-12-16T03:21:29;32.35;;;16.45;;
30303;SDS011;17112;48.636;10.152;2022-12-16T03:24:01;29.67;;;15.15;;
30303;SDS011;17112;48.636;10.152;2022-12-16T03:26:34;29.13;;;15.43;;
30303;SDS011;17112;48.636;10.152;2022-12-16T03:31:59;30.45;;;15.73;;
30303;SDS011;17112;48.636;10.152;2022-12-16T03:34:34;26.65;;;14.55;;
30303;SDS011;17112;48.636;10.152;2022-12-16T03:37:15;32.97;;;16.48;;
30303;SDS011;17112;48.636;10.152;2022-12-16T03:39:45;34.55;;;18.25;;
30303;SDS011;17112;48.636;10.152;2022-12-16T03:42:13;32.78;;;17.85;;
30303;SDS011;17112;48.636;10.152;2022-12-16T03:44:40;32.47;;;16.77;;
30303;SDS011;17112;48.636;10.152;2022-12-16T03:47:07;28.60;;;14.07;;
30303;SDS011;17112;48.636;10.152;2022-12-16T03:49:33;30.05;;;15.82;;
30303;SDS011;17112;48.636;10.152;2022-12-16T03:51:59;31.05;;;16.55;;
30303;SDS011;17112;48.636;10.152;2022-12-16T03:54:25;32.33;;;16.90;;
30303;SDS011;17112;48.636;10.152;2022-12-16T03:56:50;34.13;;;17.88;;
30303;SDS011;17112;48.636;10.152;2022-12-16T03:59:16;35.42;;;17.95;;
30303;SDS011;17112;48.636;10.152;2022-12-16T04:01:42;36.03;;;16.77;;
30303;SDS011;17112;48.636;10.152;2022-12-16T04:04:08;36.90;;;17.30;;
30303;SDS011;17112;48.636;10.152;2022-12-16T04:06:34;41.85;;;18.92;;
30303;SDS011;17112;48.636;10.152;2022-12-16T04:09:00;31.33;;;16.95;;
30303;SDS011;17112;48.636;10.152;2022-12-16T04:11:26;37.92;;;18.08;;
30303;SDS011;17112;48.636;10.152;2022-12-16T04:14:10;37.15;;;17.42;;
30303;SDS011;17112;48.636;10.152;2022-12-16T04:16:54;32.00;;;16.13;;
30303;SDS011;17112;48.636;10.152;2022-12-16T04:19:39;31.40;;;16.20;;
30303;SDS011;17112;48.636;10.152;2022-12-16T04:22:38;31.10;;;15.85;;
30303;SDS011;17112;48.636;10.152;2022-12-16T04:25:28;30.30;;;16.50;;
30303;SDS011;17112;48.636;10.152;2022-12-16T04:27:59;28.33;;;16.08;;
30303;SDS011;17112;48.636;10.152;2022-12-16T04:30:25;32.38;;;17.02;;
30303;SDS011;17112;48.636;10.152;2022-12-16T04:32:55;37.92;;;17.70;;
30303;SDS011;17112;48.636;10.152;2022-12-16T04:35:41;35.55;;;17.45;;
30303;SDS011;17112;48.636;10.152;2022-12-16T04:38:26;34.78;;;17.27;;
30303;SDS011;17112;48.636;10.152;2022-12-16T04:41:10;27.45;;;12.88;;
30303;SDS011;17112;48.636;10.152;2022-12-16T04:43:55;32.38;;;16.48;;
30303;SDS011;17112;48.636;10.152;2022-12-16T04:46:39;34.72;;;16.50;;
30303;SDS011;17112;48.636;10.152;2022-12-16T04:49:23;38.67;;;17.40;;
30303;SDS011;17112;48.636;10.152;2022-12-16T04:52:07;44.60;;;22.42;;
30303;SDS011;17112;48.636;10.152;2022-12-16T04:57:36;31.75;;;15.60;;
30303;SDS011;17112;48.636;10.152;2022-12-16T05:00:20;26.00;;;12.48;;
30303;SDS011;17112;48.636;10.152;2022-12-16T05:03:06;30.33;;;15.95;;
30303;SDS011;17112;48.636;10.152;2022-12-16T05:05:50;31.60;;;16.17;;
30303;SDS011;17112;48.636;10.152;2022-12-16T05:08:34;31.30;;;16.70;;
30303;SDS011;17112;48.636;10.152;2022-12-16T05:14:03;31.63;;;16.13;;
30303;SDS011;17112;48.636;10.152;2022-12-16T05:16:47;32.08;;;17.05;;
30303;SDS011;17112;48.636;10.152;2022-12-16T05:19:31;31.27;;;16.55;;
30303;SDS011;17112;48.636;10.152;2022-12-16T05:22:16;32.90;;;17.00;;
30303;SDS011;17112;48.636;10.152;2022-12-16T05:25:00;30.75;;;16.40;;
30303;SDS011;17112;48.636;10.152;2022-12-16T05:27:47;32.38;;;17.60;;
30303;SDS011;17112;48.636;10.152;2022-12-16T05:30:33;30.63;;;16.38;;
30303;SDS011;17112;48.636;10.152;2022-12-16T05:33:17;33.05;;;17.58;;
30303;SDS011;17112;48.636;10.152;2022-12-16T05:36:01;34.17;;;17.98;;
30303;SDS011;17112;48.636;10.152;2022-12-16T05:38:45;32.78;;;17.45;;
30303;SDS011;17112;48.636;10.152;2022-12-16T05:41:30;38.28;;;17.65;;
30303;SDS011;17112;48.636;10.152;2022-12-16T05:44:14;34.13;;;18.13;;
30303;SDS011;17112;48.636;10.152;2022-12-16T05:46:58;32.42;;;16.88;;
30303;SDS011;17112;48.636;10.152;2022-12-16T05:49:42;36.35;;;18.10;;
30303;SDS011;17112;48.636;10.152;2022-12-16T05:52:26;28.27;;;14.20;;
30303;SDS011;17112;48.636;10.152;2022-12-16T05:55:10;35.38;;;16.55;;
30303;SDS011;17112;48.636;10.152;2022-12-16T05:57:54;32.72;;;17.98;;
30303;SDS011;17112;48.636;10.152;2022-12-16T06:00:38;33.28;;;17.17;;
30303;SDS011;17112;48.636;10.152;2022-12-16T06:03:22;32.25;;;16.55;;
30303;SDS011;17112;48.636;10.152;2022-12-16T06:06:07;31.23;;;16.50;;
30303;SDS011;17112;48.636;10.152;2022-12-16T06:08:51;27.88;;;15.48;;
30303;SDS011;17112;48.636;10.152;2022-12-16T06:11:35;36.37;;;18.03;;
30303;SDS011;17112;48.636;10.152;2022-12-16T06:14:20;34.13;;;17.90;;
30303;SDS011;17112;48.636;10.152;2022-12-16T06:17:04;36.70;;;17.67;;
30303;SDS011;17112;48.636;10.152;2022-12-16T06:19:48;29.50;;;14.00;;
30303;SDS011;17112;48.636;10.152;2022-12-16T06:22:32;37.85;;;18.15;;
30303;SDS011;17112;48.636;10.152;2022-12-16T06:25:16;31.88;;;16.90;;
30303;SDS011;17112;48.636;10.152;2022-12-16T06:28:00;29.23;;;16.10;;
30303;SDS011;17112;48.636;10.152;2022-12-16T06:30:44;30.33;;;15.63;;
30303;SDS011;17112;48.636;10.152;2022-12-16T06:33:28;42.85;;;20.15;;
30303;SDS011;17112;48.636;10.152;2022-12-16T06:36:13;35.90;;;18.35;;
30303;SDS011;17112;48.636;10.152;2022-12-16T06:38:57;41.80;;;19.60;;
30303;SDS011;17112;48.636;10.152;2022-12-16T06:41:41;21.17;;;11.95;;
30303;SDS011;17112;48.636;10.152;2022-12-16T06:47:10;29.95;;;14.60;;
30303;SDS011;17112;48.636;10.152;2022-12-16T06:49:54;30.80;;;15.43;;
30303;SDS011;17112;48.636;10.152;2022-12-16T06:52:40;33.05;;;15.95;;
30303;SDS011;17112;48.636;10.152;2022-12-16T06:55:28;29.38;;;16.38;;
30303;SDS011;17112;48.636;10.152;2022-12-16T06:58:12;21.70;;;11.98;;
30303;SDS011;17112;48.636;10.152;2022-12-16T07:00:56;28.08;;;15.23;;
30303;SDS011;17112;48.636;10.152;2022-12-16T07:03:40;32.10;;;16.40;;
30303;SDS011;17112;48.636;10.152;2022-12-16T07:06:24;27.45;;;15.40;;
30303;SDS011;17112;48.636;10.152;2022-12-16T07:09:09;32.47;;;17.42;;
30303;SDS011;17112;48.636;10.152;2022-12-16T07:11:53;28.55;;;16.50;;
30303;SDS011;17112;48.636;10.152;2022-12-16T07:14:37;31.73;;;16.40;;
30303;SDS011;17112;48.636;10.152;2022-12-16T07:17:21;31.27;;;16.83;;
30303;SDS011;17112;48.636;10.152;2022-12-16T07:20:06;32.60;;;16.52;;
30303;SDS011;17112;48.636;10.152;2022-12-16T07:22:51;31.80;;;16.45;;
30303;SDS011;17112;48.636;10.152;2022-12-16T07:25:35;30.83;;;17.33;;
30303;SDS011;17112;48.636;10.152;2022-12-16T07:28:19;23.48;;;13.52;;
30303;SDS011;17112;48.636;10.152;2022-12-16T07:31:03;35.50;;;17.60;;
30303;SDS011;17112;48.636;10.152;2022-12-16T07:33:47;31.13;;;17.23;;
30303;SDS011;17112;48.636;10.152;2022-12-16T07:36:31;36.30;;;17.77;;
30303;SDS011;17112;48.636;10.152;2022-12-16T07:39:15;30.88;;;16.95;;
30303;SDS011;17112;48.636;10.152;2022-12-16T07:42:00;32.20;;;16.85;;
30303;SDS011;17112;48.636;10.152;2022-12-16T07:44:44;25.83;;;13.63;;
30303;SDS011;17112;48.636;10.152;2022-12-16T07:47:28;29.83;;;16.35;;
30303;SDS011;17112;48.636;10.152;2022-12-16T07:50:12;32.53;;;17.27;;
30303;SDS011;17112;48.636;10.152;2022-12-16T07:52:57;35.85;;;18.92;;
30303;SDS011;17112;48.636;10.152;2022-12-16T07:55:42;31.40;;;16.85;;
30303;SDS011;17112;48.636;10.152;2022-12-16T07:58:27;31.85;;;17.27;;
30303;SDS011;17112;48.636;10.152;2022-12-16T08:01:12;32.03;;;17.35;;
30303;SDS011;17112;48.636;10.152;2022-12-16T08:06:41;27.70;;;14.73;;
30303;SDS011;17112;48.636;10.152;2022-12-16T08:09:25;31.65;;;15.68;;
30303;SDS011;17112;48.636;10.152;2022-12-16T08:12:10;28.25;;;15.10;;
30303;SDS011;17112;48.636;10.152;2022-12-16T08:14:54;21.75;;;12.10;;
30303;SDS011;17112;48.636;10.152;2022-12-16T08:17:47;31.33;;;15.43;;
30303;SDS011;17112;48.636;10.152;2022-12-16T08:20:35;27.90;;;14.80;;
30303;SDS011;17112;48.636;10.152;2022-12-16T08:23:19;26.95;;;14.98;;
30303;SDS011;17112;48.636;10.152;2022-12-16T08:28:49;22.60;;;10.52;;
30303;SDS011;17112;48.636;10.152;2022-12-16T08:31:33;29.85;;;14.82;;
30303;SDS011;17112;48.636;10.152;2022-12-16T08:34:18;27.80;;;14.50;;
30303;SDS011;17112;48.636;10.152;2022-12-16T08:37:02;24.85;;;14.18;;
30303;SDS011;17112;48.636;10.152;2022-12-16T08:39:46;28.55;;;14.43;;
30303;SDS011;17112;48.636;10.152;2022-12-16T08:42:30;30.45;;;15.02;;
30303;SDS011;17112;48.636;10.152;2022-12-16T08:45:15;41.45;;;17.80;;
30303;SDS011;17112;48.636;10.152;2022-12-16T08:47:59;21.40;;;11.82;;
30303;SDS011;17112;48.636;10.152;2022-12-16T08:50:44;28.45;;;16.08;;
30303;SDS011;17112;48.636;10.152;2022-12-16T08:53:28;24.30;;;13.07;;
30303;SDS011;17112;48.636;10.152;2022-12-16T08:56:12;29.65;;;14.52;;
30303;SDS011;17112;48.636;10.152;2022-12-16T08:58:56;28.13;;;13.90;;
30303;SDS011;17112;48.636;10.152;2022-12-16T09:01:40;27.73;;;15.98;;
30303;SDS011;17112;48.636;10.152;2022-12-16T09:04:25;28.80;;;16.27;;
30303;SDS011;17112;48.636;10.152;2022-12-16T09:07:09;28.73;;;16.08;;
30303;SDS011;17112;48.636;10.152;2022-12-16T09:09:53;26.92;;;14.05;;
30303;SDS011;17112;48.636;10.152;2022-12-16T09:12:37;27.40;;;14.07;;
30303;SDS011;17112;48.636;10.152;2022-12-16T09:15:21;39.08;;;18.90;;
30303;SDS011;17112;48.636;10.152;2022-12-16T09:18:05;23.42;;;11.63;;
30303;SDS011;17112;48.636;10.152;2022-12-16T09:20:50;25.90;;;14.25;;
30303;SDS011;17112;48.636;10.152;2022-12-16T09:23:35;23.95;;;13.13;;
30303;SDS011;17112;48.636;10.152;2022-12-16T09:26:19;29.42;;;16.88;;
30303;SDS011;17112;48.636;10.152;2022-12-16T09:29:04;25.02;;;13.80;;
30303;SDS011;17112;48.636;10.152;2022-12-16T09:31:48;25.77;;;13.38;;
30303;SDS011;17112;48.636;10.152;2022-12-16T09:34:33;28.52;;;14.35;;
30303;SDS011;17112;48.636;10.152;2022-12-16T09:37:18;28.30;;;13.43;;
30303;SDS011;17112;48.636;10.152;2022-12-16T09:40:03;23.95;;;12.65;;
30303;SDS011;17112;48.636;10.152;2022-12-16T09:43:01;23.27;;;12.98;;
30303;SDS011;17112;48.636;10.152;2022-12-16T09:51:54;50.38;;;26.05;;
30303;SDS011;17112;48.636;10.152;2022-12-16T09:54:40;22.58;;;13.70;;
30303;SDS011;17112;48.636;10.152;2022-12-16T09:57:28;25.13;;;14.75;;
30303;SDS011;17112;48.636;10.152;2022-12-16T10:00:21;23.10;;;12.63;;
30303;SDS011;17112;48.636;10.152;2022-12-16T10:03:15;21.92;;;10.80;;
30303;SDS011;17112;48.636;10.152;2022-12-16T10:09:26;21.02;;;11.05;;
30303;SDS011;17112;48.636;10.152;2022-12-16T10:21:15;18.70;;;10.23;;
30303;SDS011;17112;48.636;10.152;2022-12-16T10:24:08;20.20;;;10.93;;
30303;SDS011;17112;48.636;10.152;2022-12-16T10:29:58;18.02;;;9.93;;
30303;SDS011;17112;48.636;10.152;2022-12-16T10:32:47;20.38;;;10.80;;
30303;SDS011;17112;48.636;10.152;2022-12-16T10:38:37;20.58;;;10.32;;
30303;SDS011;17112;48.636;10.152;2022-12-16T10:41:31;21.25;;;10.35;;
30303;SDS011;17112;48.636;10.152;2022-12-16T10:44:19;19.73;;;10.68;;
30303;SDS011;17112;48.636;10.152;2022-12-16T10:47:12;20.60;;;10.70;;
30303;SDS011;17112;48.636;10.152;2022-12-16T10:49:56;16.42;;;10.15;;
30303;SDS011;17112;48.636;10.152;2022-12-16T10:55:53;22.55;;;10.65;;
30303;SDS011;17112;48.636;10.152;2022-12-16T10:59:04;16.70;;;9.50;;
30303;SDS011;17112;48.636;10.152;2022-12-16T11:02:00;15.07;;;9.48;;
30303;SDS011;17112;48.636;10.152;2022-12-16T11:04:46;15.75;;;9.18;;
30303;SDS011;17112;48.636;10.152;2022-12-16T11:07:33;20.73;;;11.10;;
30303;SDS011;17112;48.636;10.152;2022-12-16T11:13:21;16.92;;;9.55;;
30303;SDS011;17112;48.636;10.152;2022-12-16T11:16:10;15.52;;;9.70;;
30303;SDS011;17112;48.636;10.152;2022-12-16T11:19:28;18.52;;;10.68;;
30303;SDS011;17112;48.636;10.152;2022-12-16T11:22:19;23.15;;;10.93;;
30303;SDS011;17112;48.636;10.152;2022-12-16T11:25:05;18.27;;;10.48;;
30303;SDS011;17112;48.636;10.152;2022-12-16T11:28:16;24.73;;;12.93;;
30303;SDS011;17112;48.636;10.152;2022-12-16T11:31:02;18.15;;;11.30;;
30303;SDS011;17112;48.636;10.152;2022-12-16T11:33:49;19.95;;;10.43;;
30303;SDS011;17112;48.636;10.152;2022-12-16T11:36:36;18.58;;;11.18;;
30303;SDS011;17112;48.636;10.152;2022-12-16T11:39:23;19.67;;;10.25;;
30303;SDS011;17112;48.636;10.152;2022-12-16T11:42:11;26.45;;;14.38;;
30303;SDS011;17112;48.636;10.152;2022-12-16T11:45:04;22.95;;;12.20;;
30303;SDS011;17112;48.636;10.152;2022-12-16T11:48:04;19.30;;;11.73;;
30303;SDS011;17112;48.636;10.152;2022-12-16T11:51:04;19.73;;;11.63;;
30303;SDS011;17112;48.636;10.152;2022-12-16T11:53:57;20.77;;;11.25;;
30303;SDS011;17112;48.636;10.152;2022-12-16T11:56:58;21.10;;;11.13;;
30303;SDS011;17112;48.636;10.152;2022-12-16T11:59:47;25.60;;;14.35;;
30303;SDS011;17112;48.636;10.152;2022-12-16T12:02:49;15.27;;;9.57;;
30303;SDS011;17112;48.636;10.152;2022-12-16T12:05:36;18.63;;;11.50;;
30303;SDS011;17112;48.636;10.152;2022-12-16T12:18:39;23.48;;;11.57;;
30303;SDS011;17112;48.636;10.152;2022-12-16T12:24:52;17.25;;;9.50;;
30303;SDS011;17112;48.636;10.152;2022-12-16T12:27:59;18.42;;;10.38;;
30303;SDS011;17112;48.636;10.152;2022-12-16T12:31:03;21.83;;;11.85;;
30303;SDS011;17112;48.636;10.152;2022-12-16T12:34:11;18.95;;;10.05;;
30303;SDS011;17112;48.636;10.152;2022-12-16T12:37:08;14.88;;;9.40;;
30303;SDS011;17112;48.636;10.152;2022-12-16T12:39:55;17.67;;;9.80;;
30303;SDS011;17112;48.636;10.152;2022-12-16T12:42:52;15.20;;;9.63;;
30303;SDS011;17112;48.636;10.152;2022-12-16T12:54:52;15.88;;;9.63;;
30303;SDS011;17112;48.636;10.152;2022-12-16T12:57:54;18.15;;;9.90;;
30303;SDS011;17112;48.636;10.152;2022-12-16T13:00:43;20.63;;;9.55;;
30303;SDS011;17112;48.636;10.152;2022-12-16T13:03:37;15.85;;;9.45;;
30303;SDS011;17112;48.636;10.152;2022-12-16T13:06:29;16.02;;;9.00;;
30303;SDS011;17112;48.636;10.152;2022-12-16T13:09:31;17.77;;;10.88;;
30303;SDS011;17112;48.636;10.152;2022-12-16T13:27:30;16.75;;;10.05;;
30303;SDS011;17112;48.636;10.152;2022-12-16T13:30:29;17.52;;;10.10;;
30303;SDS011;17112;48.636;10.152;2022-12-16T13:36:08;15.30;;;10.10;;
30303;SDS011;17112;48.636;10.152;2022-12-16T13:38:55;17.30;;;9.23;;
30303;SDS011;17112;48.636;10.152;2022-12-16T13:50:42;14.95;;;9.48;;
30303;SDS011;17112;48.636;10.152;2022-12-16T13:56:19;13.82;;;8.05;;
30303;SDS011;17112;48.636;10.152;2022-12-16T13:59:16;16.92;;;9.90;;
30303;SDS011;17112;48.636;10.152;2022-12-16T14:02:14;14.85;;;9.07;;
30303;SDS011;17112;48.636;10.152;2022-12-16T14:05:19;17.10;;;9.73;;
30303;SDS011;17112;48.636;10.152;2022-12-16T14:08:10;18.30;;;9.25;;
30303;SDS011;17112;48.636;10.152;2022-12-16T14:11:01;17.15;;;10.02;;
30303;SDS011;17112;48.636;10.152;2022-12-16T14:25:18;12.85;;;7.30;;
30303;SDS011;17112;48.636;10.152;2022-12-16T14:28:13;14.90;;;8.52;;
30303;SDS011;17112;48.636;10.152;2022-12-16T14:31:25;17.95;;;7.97;;
30303;SDS011;17112;48.636;10.152;2022-12-16T14:37:12;18.00;;;8.40;;
30303;SDS011;17112;48.636;10.152;2022-12-16T14:39:58;15.27;;;8.40;;
30303;SDS011;17112;48.636;10.152;2022-12-16T14:42:42;11.23;;;5.90;;
30303;SDS011;17112;48.636;10.152;2022-12-16T14:48:26;16.77;;;8.82;;
30303;SDS011;17112;48.636;10.152;2022-12-16T14:54:14;19.90;;;7.68;;
30303;SDS011;17112;48.636;10.152;2022-12-16T14:57:22;16.90;;;8.68;;
30303;SDS011;17112;48.636;10.152;2022-12-16T15:02:51;8.85;;;5.55;;
30303;SDS011;17112;48.636;10.152;2022-12-16T15:05:39;13.02;;;7.65;;
30303;SDS011;17112;48.636;10.152;2022-12-16T15:08:25;11.52;;;6.85;;
30303;SDS011;17112;48.636;10.152;2022-12-16T15:11:11;13.35;;;7.15;;
30303;SDS011;17112;48.636;10.152;2022-12-16T15:13:59;12.73;;;6.82;;
30303;SDS011;17112;48.636;10.152;2022-12-16T15:16:45;14.63;;;7.47;;
30303;SDS011;17112;48.636;10.152;2022-12-16T15:19:36;11.85;;;7.13;;
30303;SDS011;17112;48.636;10.152;2022-12-16T15:22:31;13.15;;;7.80;;
30303;SDS011;17112;48.636;10.152;2022-12-16T15:25:18;16.15;;;7.85;;
30303;SDS011;17112;48.636;10.152;2022-12-16T15:28:04;12.55;;;6.40;;
30303;SDS011;17112;48.636;10.152;2022-12-16T15:31:11;10.05;;;6.13;;
30303;SDS011;17112;48.636;10.152;2022-12-16T15:34:16;14.15;;;6.57;;
30303;SDS011;17112;48.636;10.152;2022-12-16T15:37:27;12.60;;;6.10;;
30303;SDS011;17112;48.636;10.152;2022-12-16T15:40:19;9.40;;;5.82;;
30303;SDS011;17112;48.636;10.152;2022-12-16T15:43:05;11.73;;;6.72;;
30303;SDS011;17112;48.636;10.152;2022-12-16T15:45:59;13.10;;;6.32;;
30303;SDS011;17112;48.636;10.152;2022-12-16T15:48:43;10.32;;;5.93;;
30303;SDS011;17112;48.636;10.152;2022-12-16T15:51:46;12.00;;;6.13;;
30303;SDS011;17112;48.636;10.152;2022-12-16T15:54:45;11.27;;;6.07;;
30303;SDS011;17112;48.636;10.152;2022-12-16T15:57:33;10.35;;;6.25;;
30303;SDS011;17112;48.636;10.152;2022-12-16T16:00:22;9.57;;;5.68;;
30303;SDS011;17112;48.636;10.152;2022-12-16T16:03:16;13.80;;;6.65;;
30303;SDS011;17112;48.636;10.152;2022-12-16T16:06:15;10.77;;;6.50;;
30303;SDS011;17112;48.636;10.152;2022-12-16T16:09:12;12.63;;;6.25;;
30303;SDS011;17112;48.636;10.152;2022-12-16T16:11:57;12.20;;;5.75;;
30303;SDS011;17112;48.636;10.152;2022-12-16T16:14:41;12.52;;;6.00;;
30303;SDS011;17112;48.636;10.152;2022-12-16T16:17:25;25.00;;;14.13;;
30303;SDS011;17112;48.636;10.152;2022-12-16T16:20:13;11.25;;;6.35;;
30303;SDS011;17112;48.636;10.152;2022-12-16T16:22:59;13.07;;;6.50;;
30303;SDS011;17112;48.636;10.152;2022-12-16T16:28:29;10.48;;;5.82;;
30303;SDS011;17112;48.636;10.152;2022-12-16T16:31:13;9.23;;;5.63;;
30303;SDS011;17112;48.636;10.152;2022-12-16T16:33:58;11.35;;;6.00;;
30303;SDS011;17112;48.636;10.152;2022-12-16T16:36:42;7.57;;;4.63;;
30303;SDS011;17112;48.636;10.152;2022-12-16T16:39:26;10.52;;;5.55;;
30303;SDS011;17112;48.636;10.152;2022-12-16T16:42:10;11.70;;;6.45;;
30303;SDS011;17112;48.636;10.152;2022-12-16T16:44:54;12.05;;;6.85;;
30303;SDS011;17112;48.636;10.152;2022-12-16T16:47:38;14.00;;;6.25;;
30303;SDS011;17112;48.636;10.152;2022-12-16T16:50:33;11.68;;;5.90;;
30303;SDS011;17112;48.636;10.152;2022-12-16T16:53:18;12.30;;;6.35;;
30303;SDS011;17112;48.636;10.152;2022-12-16T16:56:02;16.48;;;7.57;;
30303;SDS011;17112;48.636;10.152;2022-12-16T17:01:31;14.88;;;6.68;;
30303;SDS011;17112;48.636;10.152;2022-12-16T17:04:15;18.13;;;7.53;;
30303;SDS011;17112;48.636;10.152;2022-12-16T17:06:59;20.95;;;9.00;;
30303;SDS011;17112;48.636;10.152;2022-12-16T17:09:43;16.17;;;6.95;;
30303;SDS011;17112;48.636;10.152;2022-12-16T17:12:28;13.65;;;6.70;;
30303;SDS011;17112;48.636;10.152;2022-12-16T17:15:21;15.00;;;7.55;;
30303;SDS011;17112;48.636;10.152;2022-12-16T17:18:07;14.63;;;6.93;;
30303;SDS011;17112;48.636;10.152;2022-12-16T17:23:36;7.77;;;4.80;;
30303;SDS011;17112;48.636;10.152;2022-12-16T17:26:21;13.25;;;6.70;;
30303;SDS011;17112;48.636;10.152;2022-12-16T17:29:07;10.85;;;6.90;;
30303;SDS011;17112;48.636;10.152;2022-12-16T17:32:06;11.00;;;6.45;;
30303;SDS011;17112;48.636;10.152;2022-12-16T17:35:04;17.02;;;7.57;;
30303;SDS011;17112;48.636;10.152;2022-12-16T17:37:48;13.88;;;7.78;;
30303;SDS011;17112;48.636;10.152;2022-12-16T17:40:33;12.52;;;7.18;;
30303;SDS011;17112;48.636;10.152;2022-12-16T17:43:18;16.05;;;7.03;;
30303;SDS011;17112;48.636;10.152;2022-12-16T17:46:03;9.88;;;5.55;;
30303;SDS011;17112;48.636;10.152;2022-12-16T17:48:50;11.65;;;6.78;;
30303;SDS011;17112;48.636;10.152;2022-12-16T17:51:37;13.82;;;7.18;;
30303;SDS011;17112;48.636;10.152;2022-12-16T17:54:22;13.07;;;7.60;;
30303;SDS011;17112;48.636;10.152;2022-12-16T17:57:23;13.75;;;7.22;;
30303;SDS011;17112;48.636;10.152;2022-12-16T18:00:08;16.80;;;8.50;;
30303;SDS011;17112;48.636;10.152;2022-12-16T18:02:53;14.23;;;7.53;;
30303;SDS011;17112;48.636;10.152;2022-12-16T18:05:37;13.85;;;7.78;;
30303;SDS011;17112;48.636;10.152;2022-12-16T18:08:21;10.93;;;5.72;;
30303;SDS011;17112;48.636;10.152;2022-12-16T18:13:49;15.60;;;7.65;;
30303;SDS011;17112;48.636;10.152;2022-12-16T18:16:34;14.10;;;8.07;;
30303;SDS011;17112;48.636;10.152;2022-12-16T18:19:18;16.50;;;7.95;;
30303;SDS011;17112;48.636;10.152;2022-12-16T18:22:03;11.18;;;6.15;;
30303;SDS011;17112;48.636;10.152;2022-12-16T18:24:48;16.58;;;8.90;;
30303;SDS011;17112;48.636;10.152;2022-12-16T18:27:32;13.23;;;6.00;;
30303;SDS011;17112;48.636;10.152;2022-12-16T18:30:18;16.60;;;8.15;;
30303;SDS011;17112;48.636;10.152;2022-12-16T18:33:02;16.45;;;8.82;;